createdAt,value
2018-04-23T14:34:04.785Z,345
2018-04-23T14:34:17.769Z,345
2018-04-23T14:34:30.231Z,345
2018-04-23T14:34:42.738Z,345
2018-04-23T14:34:55.282Z,345
2018-04-23T14:35:07.788Z,345
2018-04-23T14:35:20.287Z,345
2018-04-23T14:35:32.741Z,345
2018-04-23T14:35:45.705Z,345
2018-04-23T14:35:58.256Z,350
2018-04-23T14:36:11.277Z,345
2018-04-23T14:36:23.825Z,345
2018-04-23T14:36:35.899Z,345
2018-04-23T14:36:48.908Z,350
2018-04-23T14:37:01.917Z,350
2018-04-23T14:37:14.866Z,350
2018-04-23T14:37:27.384Z,350
2018-04-23T14:37:40.400Z,350
2018-04-23T14:37:52.947Z,350
2018-04-23T14:38:05.461Z,350
2018-04-23T14:38:17.997Z,355
2018-04-23T14:38:30.532Z,350
2018-04-23T14:38:43.539Z,350
2018-04-23T14:38:56.516Z,350
2018-04-23T14:39:09.473Z,355
2018-04-23T14:39:22.418Z,355
2018-04-23T14:39:34.906Z,355
2018-04-23T14:39:47.906Z,355
2018-04-23T14:40:00.878Z,355
2018-04-23T14:40:13.379Z,355
2018-04-23T14:40:26.382Z,355
2018-04-23T14:40:38.433Z,355
2018-04-23T14:40:51.005Z,355
2018-04-23T14:41:03.507Z,355
2018-04-23T14:41:16.022Z,355
2018-04-23T14:41:28.984Z,355
2018-04-23T14:41:41.074Z,355
2018-04-23T14:41:54.051Z,355
2018-04-23T14:42:06.534Z,355
2018-04-23T14:42:19.556Z,355
2018-04-23T14:42:32.067Z,355
2018-04-23T14:42:45.060Z,355
2018-04-23T14:42:57.576Z,355
2018-04-23T14:43:10.564Z,355
2018-04-23T14:43:23.523Z,355
2018-04-23T14:43:36.468Z,355
2018-04-23T14:43:49.014Z,355
2018-04-23T14:44:01.988Z,355
2018-04-23T14:44:13.533Z,355
2018-04-23T14:44:26.079Z,355
2018-04-23T14:44:38.200Z,355
2018-04-23T14:44:51.153Z,355
2018-04-23T14:45:03.613Z,355
2018-04-23T14:45:16.625Z,355
2018-04-23T14:45:29.783Z,365
2018-04-23T14:45:42.344Z,365
2018-04-23T14:45:54.863Z,360
2018-04-23T14:46:07.360Z,360
2018-04-23T14:46:19.877Z,360
2018-04-23T14:46:32.858Z,360
2018-04-23T14:46:45.391Z,365
2018-04-23T14:46:58.338Z,365
2018-04-23T14:47:09.931Z,365
2018-04-23T14:47:22.881Z,365
2018-04-23T14:47:35.450Z,365
2018-04-23T14:47:47.437Z,370
2018-04-23T14:47:59.475Z,370
2018-04-23T14:48:11.498Z,375
2018-04-23T14:48:23.560Z,375
2018-04-23T14:48:36.620Z,375
2018-04-23T14:48:49.170Z,375
2018-04-23T14:49:03.133Z,375
2018-04-23T14:49:15.657Z,380
2018-04-23T14:49:28.242Z,380
2018-04-23T14:49:41.263Z,380
2018-04-23T14:49:53.753Z,380
2018-04-23T14:50:06.222Z,385
2018-04-23T14:50:18.275Z,390
2018-04-23T14:50:30.820Z,385
2018-04-23T14:50:43.292Z,395
2018-04-23T14:50:56.292Z,390
2018-04-23T14:51:08.799Z,390
2018-04-23T14:51:20.841Z,390
2018-04-23T14:51:33.346Z,390
2018-04-23T14:51:46.305Z,390
2018-04-23T14:51:58.829Z,390
2018-04-23T14:52:11.797Z,390
2018-04-23T14:52:24.777Z,390
2018-04-23T14:52:37.712Z,390
2018-04-23T14:52:50.741Z,395
2018-04-23T14:53:03.780Z,395
2018-04-23T14:53:15.912Z,390
2018-04-23T14:53:28.856Z,395
2018-04-23T14:53:41.846Z,390
2018-04-23T14:53:54.370Z,390
2018-04-23T14:54:06.427Z,395
2018-04-23T14:54:18.967Z,395
2018-04-23T14:54:31.541Z,400
2018-04-23T14:54:44.066Z,400
2018-04-23T14:54:56.991Z,405
2018-04-23T14:55:09.423Z,405
2018-04-23T14:55:21.509Z,415
2018-04-23T14:55:33.598Z,410
2018-04-23T14:55:46.647Z,410
2018-04-23T14:55:59.631Z,410
2018-04-23T14:56:12.613Z,410
2018-04-23T14:56:24.640Z,410
2018-04-23T14:56:36.726Z,410
2018-04-23T14:56:49.233Z,415
2018-04-23T14:57:02.167Z,415
2018-04-23T14:57:15.104Z,415
2018-04-23T14:57:28.047Z,415
2018-04-23T14:57:40.590Z,415
2018-04-23T14:57:53.571Z,410
2018-04-23T14:58:06.149Z,415
2018-04-23T14:58:18.709Z,415
2018-04-23T14:58:31.207Z,415
2018-04-23T14:58:42.761Z,420
2018-04-23T14:58:54.794Z,415
2018-04-23T14:59:07.290Z,415
2018-04-23T14:59:19.777Z,415
2018-04-23T14:59:32.123Z,415
2018-04-23T14:59:45.490Z,420
2018-04-23T14:59:58.981Z,420
2018-04-23T15:00:13.870Z,420
2018-04-23T15:00:26.822Z,425
2018-04-23T15:00:39.667Z,420
2018-04-23T15:00:52.057Z,420
2018-04-23T15:01:04.657Z,420
2018-04-23T15:01:17.158Z,420
2018-04-23T15:01:29.695Z,420
2018-04-23T15:01:42.665Z,420
2018-04-23T15:01:55.205Z,420
2018-04-23T15:02:07.680Z,425
2018-04-23T15:02:20.170Z,425
2018-04-23T15:02:33.161Z,430
2018-04-23T15:02:45.704Z,420
2018-04-23T15:02:58.668Z,415
2018-04-23T15:03:11.190Z,400
2018-04-23T15:03:24.163Z,395
2018-04-23T15:03:37.075Z,390
2018-04-23T15:03:49.595Z,390
2018-04-23T15:04:02.643Z,395
2018-04-23T15:04:14.873Z,410
2018-04-23T15:04:27.412Z,410
2018-04-23T15:04:40.450Z,380
2018-04-23T15:04:52.972Z,355
2018-04-23T15:05:05.534Z,340
2018-04-23T15:05:18.073Z,340
2018-04-23T15:05:31.081Z,335
2018-04-23T15:05:44.022Z,335
2018-04-23T15:05:57.059Z,340
2018-04-23T15:06:10.005Z,345
2018-04-23T15:06:22.966Z,350
2018-04-23T15:06:35.943Z,360
2018-04-23T15:06:48.952Z,375
2018-04-23T15:07:00.528Z,395
2018-04-23T15:07:13.503Z,415
2018-04-23T15:07:26.008Z,420
2018-04-23T15:07:38.008Z,425
2018-04-23T15:07:50.949Z,425
2018-04-23T15:08:03.972Z,425
2018-04-23T15:08:16.434Z,425
2018-04-23T15:08:29.194Z,420
2018-04-23T15:08:42.177Z,395
2018-04-23T15:08:54.218Z,365
2018-04-23T15:09:06.265Z,350
2018-04-23T15:09:18.327Z,340
2018-04-23T15:09:30.877Z,330
2018-04-23T15:09:43.904Z,335
2018-04-23T15:09:56.383Z,330
2018-04-23T15:10:07.908Z,335
2018-04-23T15:10:19.982Z,335
2018-04-23T15:10:32.537Z,360
2018-04-23T15:10:44.606Z,370
2018-04-23T15:10:57.590Z,365
2018-04-23T15:11:10.130Z,345
2018-04-23T15:11:22.681Z,335
2018-04-23T15:11:35.627Z,330
2018-04-23T15:11:48.119Z,330
2018-04-23T15:12:01.069Z,330
2018-04-23T15:12:14.079Z,330
2018-04-23T15:12:27.062Z,330
2018-04-23T15:12:40.047Z,330
2018-04-23T15:12:53.009Z,325
2018-04-23T15:13:05.532Z,330
2018-04-23T15:13:18.550Z,325
2018-04-23T15:13:30.569Z,325
2018-04-23T15:13:43.514Z,320
2018-04-23T15:13:56.045Z,320
2018-04-23T15:14:08.565Z,320
2018-04-23T15:14:21.115Z,320
2018-04-23T15:14:33.147Z,320
2018-04-23T15:14:45.161Z,325
2018-04-23T15:14:58.175Z,325
2018-04-23T15:15:09.298Z,330
2018-04-23T15:15:21.788Z,330
2018-04-23T15:15:34.346Z,335
2018-04-23T15:15:46.920Z,335
2018-04-23T15:15:59.466Z,340
2018-04-23T15:16:11.534Z,340
2018-04-23T15:16:24.537Z,340
2018-04-23T15:16:36.563Z,340
2018-04-23T15:16:48.616Z,340
2018-04-23T15:17:01.174Z,345
2018-04-23T15:17:14.191Z,345
2018-04-23T15:17:27.187Z,350
2018-04-23T15:17:40.168Z,350
2018-04-23T15:17:53.265Z,355
2018-04-23T15:18:05.828Z,355
2018-04-23T15:18:17.853Z,360
2018-04-23T15:18:29.884Z,360
2018-04-23T15:18:42.396Z,380
2018-04-23T15:18:54.457Z,385
2018-04-23T15:19:07.397Z,395
2018-04-23T15:19:20.617Z,405
2018-04-23T15:19:33.580Z,420
2018-04-23T15:19:45.616Z,435
2018-04-23T15:19:57.654Z,445
2018-04-23T15:20:10.139Z,450
2018-04-23T15:20:23.134Z,455
2018-04-23T15:20:36.047Z,455
2018-04-23T15:20:49.048Z,460
2018-04-23T15:21:02.045Z,460
2018-04-23T15:21:14.575Z,455
2018-04-23T15:21:27.539Z,455
2018-04-23T15:21:40.487Z,460
2018-04-23T15:21:53.021Z,450
2018-04-23T15:22:06.022Z,445
2018-04-23T15:22:19.047Z,445
2018-04-23T15:22:32.012Z,445
2018-04-23T15:22:44.965Z,445
2018-04-23T15:22:57.877Z,440
2018-04-23T15:23:09.920Z,440
2018-04-23T15:23:22.892Z,440
2018-04-23T15:23:35.397Z,435
2018-04-23T15:23:47.914Z,435
2018-04-23T15:24:00.877Z,430
2018-04-23T15:24:13.352Z,430
2018-04-23T15:24:26.364Z,425
2018-04-23T15:24:38.415Z,430
2018-04-23T15:24:50.902Z,425
2018-04-23T15:25:02.907Z,425
2018-04-23T15:25:15.847Z,425
2018-04-23T15:25:27.852Z,430
2018-04-23T15:25:40.808Z,430
2018-04-23T15:25:53.363Z,430
2018-04-23T15:26:07.885Z,430
2018-04-23T15:26:20.465Z,435
2018-04-23T15:26:33.425Z,435
2018-04-23T15:26:46.392Z,435
2018-04-23T15:26:59.049Z,435
2018-04-23T15:27:11.607Z,435
2018-04-23T15:27:24.119Z,435
2018-04-23T15:27:37.138Z,435
2018-04-23T15:27:49.221Z,435
2018-04-23T15:28:02.209Z,435
2018-04-23T15:28:15.184Z,440
2018-04-23T15:28:28.160Z,440
2018-04-23T15:28:41.146Z,445
2018-04-23T15:28:53.225Z,440
2018-04-23T15:29:05.724Z,445
2018-04-23T15:29:18.246Z,445
2018-04-23T15:29:31.293Z,445
2018-04-23T15:29:43.804Z,440
2018-04-23T15:29:56.753Z,440
2018-04-23T15:30:09.713Z,440
2018-04-23T15:30:22.694Z,440
2018-04-23T15:30:35.638Z,440
2018-04-23T15:30:48.651Z,440
2018-04-23T15:31:00.672Z,440
2018-04-23T15:31:13.150Z,440
2018-04-23T15:31:25.634Z,445
2018-04-23T15:31:37.684Z,445
2018-04-23T15:31:50.631Z,445
2018-04-23T15:32:03.585Z,445
2018-04-23T15:32:16.044Z,445
2018-04-23T15:32:29.016Z,445
2018-04-23T15:32:41.530Z,445
2018-04-23T15:32:54.026Z,450
2018-04-23T15:33:06.978Z,445
2018-04-23T15:33:19.431Z,445
2018-04-23T15:33:32.418Z,445
2018-04-23T15:33:44.927Z,435
2018-04-23T15:33:57.908Z,385
2018-04-23T15:34:09.949Z,370
2018-04-23T15:34:23.112Z,375
2018-04-23T15:34:35.678Z,385
2018-04-23T15:34:47.698Z,370
2018-04-23T15:34:59.291Z,365
2018-04-23T15:35:12.370Z,350
2018-04-23T15:35:25.462Z,350
2018-04-23T15:35:38.000Z,350
2018-04-23T15:35:49.563Z,345
2018-04-23T15:36:02.683Z,345
2018-04-23T15:36:15.190Z,345
2018-04-23T15:36:27.732Z,345
2018-04-23T15:36:40.725Z,345
2018-04-23T15:36:53.165Z,355
2018-04-23T15:37:05.182Z,355
2018-04-23T15:37:17.673Z,345
2018-04-23T15:37:29.677Z,335
2018-04-23T15:37:42.681Z,330
2018-04-23T15:37:54.741Z,330
2018-04-23T15:38:07.210Z,335
2018-04-23T15:38:19.673Z,335
2018-04-23T15:38:32.576Z,345
2018-04-23T15:38:44.581Z,350
2018-04-23T15:38:57.101Z,350
2018-04-23T15:39:09.607Z,350
2018-04-23T15:39:22.545Z,350
2018-04-23T15:39:35.092Z,350
2018-04-23T15:39:48.016Z,345
2018-04-23T15:40:00.019Z,345
2018-04-23T15:40:12.979Z,345
2018-04-23T15:40:25.469Z,350
2018-04-23T15:40:37.968Z,355
2018-04-23T15:40:50.498Z,385
2018-04-23T15:41:03.562Z,350
2018-04-23T15:41:16.730Z,325
2018-04-23T15:41:28.787Z,325
2018-04-23T15:41:40.873Z,325
2018-04-23T15:41:53.847Z,320
2018-04-23T15:42:06.843Z,315
2018-04-23T15:42:19.350Z,315
2018-04-23T15:42:31.383Z,315
2018-04-23T15:42:43.471Z,315
2018-04-23T15:42:55.552Z,315
2018-04-23T15:43:08.053Z,315
2018-04-23T15:43:20.581Z,315
2018-04-23T15:43:33.497Z,315
2018-04-23T15:43:46.503Z,310
2018-04-23T15:43:59.464Z,310
2018-04-23T15:44:12.447Z,310
2018-04-23T15:44:25.035Z,310
2018-04-23T15:44:37.097Z,305
2018-04-23T15:44:50.014Z,305
2018-04-23T15:45:02.529Z,300
2018-04-23T15:45:15.023Z,300
2018-04-23T15:45:27.125Z,300
2018-04-23T15:45:39.699Z,295
2018-04-23T15:45:51.813Z,295
2018-04-23T15:46:03.386Z,295
2018-04-23T15:46:15.439Z,290
2018-04-23T15:46:27.922Z,290
2018-04-23T15:46:40.861Z,290
2018-04-23T15:46:53.828Z,290
2018-04-23T15:47:06.284Z,290
2018-04-23T15:47:18.826Z,290
2018-04-23T15:47:31.390Z,290
2018-04-23T15:47:43.889Z,290
2018-04-23T15:47:56.860Z,290
2018-04-23T15:48:09.824Z,295
2018-04-23T15:48:22.313Z,295
2018-04-23T15:48:34.373Z,300
2018-04-23T15:48:45.936Z,320
2018-04-23T15:48:57.993Z,350
2018-04-23T15:49:09.582Z,360
2018-04-23T15:49:22.038Z,360
2018-04-23T15:49:35.191Z,345
2018-04-23T15:49:47.655Z,340
2018-04-23T15:50:00.134Z,345
2018-04-23T15:50:12.168Z,355
2018-04-23T15:50:24.683Z,360
2018-04-23T15:50:36.763Z,355
2018-04-23T15:50:49.337Z,340
2018-04-23T15:51:01.851Z,335
2018-04-23T15:51:13.451Z,325
2018-04-23T15:51:26.454Z,305
2018-04-23T15:51:38.980Z,305
2018-04-23T15:51:51.925Z,305
2018-04-23T15:52:04.412Z,305
2018-04-23T15:52:17.409Z,305
2018-04-23T15:52:30.359Z,290
2018-04-23T15:52:42.927Z,290
2018-04-23T15:52:54.528Z,290
2018-04-23T15:53:07.064Z,290
2018-04-23T15:53:19.608Z,280
2018-04-23T15:53:32.612Z,280
2018-04-23T15:53:45.117Z,280
2018-04-23T15:53:57.169Z,280
2018-04-23T15:54:10.118Z,275
2018-04-23T15:54:22.662Z,275
2018-04-23T15:54:35.160Z,275
2018-04-23T15:54:47.201Z,275
2018-04-23T15:55:00.128Z,275
2018-04-23T15:55:12.623Z,275
2018-04-23T15:55:24.236Z,275
2018-04-23T15:55:37.184Z,275
2018-04-23T15:55:49.715Z,275
2018-04-23T15:56:02.718Z,275
2018-04-23T15:56:15.256Z,275
2018-04-23T15:56:27.781Z,280
2018-04-23T15:56:40.251Z,280
2018-04-23T15:56:53.239Z,275
2018-04-23T15:57:06.239Z,275
2018-04-23T15:57:18.296Z,280
2018-04-23T15:57:31.270Z,280
2018-04-23T15:57:43.820Z,280
2018-04-23T15:57:56.323Z,280
2018-04-23T15:58:09.335Z,280
2018-04-23T15:58:21.986Z,280
2018-04-23T15:58:35.235Z,280
2018-04-23T15:58:48.160Z,280
2018-04-23T15:59:01.153Z,280
2018-04-23T15:59:13.692Z,280
2018-04-23T15:59:26.172Z,280
2018-04-23T15:59:38.726Z,280
2018-04-23T15:59:51.676Z,280
2018-04-23T16:00:04.216Z,275
2018-04-23T16:00:16.683Z,275
2018-04-23T16:00:28.744Z,280
2018-04-23T16:00:41.724Z,280
2018-04-23T16:00:53.268Z,280
2018-04-23T16:01:05.801Z,285
2018-04-23T16:01:17.852Z,285
2018-04-23T16:01:29.906Z,275
2018-04-23T16:01:42.824Z,265
2018-04-23T16:01:55.286Z,265
2018-04-23T16:02:06.838Z,265
2018-04-23T16:02:19.303Z,265
2018-04-23T16:02:31.792Z,265
2018-04-23T16:02:44.751Z,265
2018-04-23T16:02:57.273Z,265
2018-04-23T16:03:09.715Z,265
2018-04-23T16:03:21.736Z,265
2018-04-23T16:03:33.737Z,265
2018-04-23T16:03:46.223Z,270
2018-04-23T16:03:59.323Z,270
2018-04-23T16:04:11.896Z,270
2018-04-23T16:04:24.400Z,270
2018-04-23T16:04:37.623Z,270
2018-04-23T16:04:50.114Z,275
2018-04-23T16:05:03.092Z,275
2018-04-23T16:05:16.022Z,275
2018-04-23T16:05:28.528Z,275
2018-04-23T16:05:41.055Z,275
2018-04-23T16:05:53.548Z,280
2018-04-23T16:06:06.514Z,290
2018-04-23T16:06:18.566Z,290
2018-04-23T16:06:31.548Z,295
2018-04-23T16:06:44.072Z,320
2018-04-23T16:06:57.054Z,350
2018-04-23T16:07:09.537Z,385
2018-04-23T16:07:22.490Z,385
2018-04-23T16:07:35.447Z,385
2018-04-23T16:07:47.893Z,385
2018-04-23T16:08:00.861Z,385
2018-04-23T16:08:13.378Z,385
2018-04-23T16:08:25.852Z,385
2018-04-23T16:08:38.817Z,390
2018-04-23T16:08:51.764Z,390
2018-04-23T16:09:04.292Z,390
2018-04-23T16:09:17.287Z,390
2018-04-23T16:09:30.260Z,385
2018-04-23T16:09:43.265Z,385
2018-04-23T16:09:56.235Z,385
2018-04-23T16:10:09.226Z,385
2018-04-23T16:10:22.240Z,385
2018-04-23T16:10:34.417Z,385
2018-04-23T16:10:46.919Z,385
2018-04-23T16:10:59.921Z,385
2018-04-23T16:11:12.474Z,385
2018-04-23T16:11:25.002Z,385
2018-04-23T16:11:37.495Z,385
2018-04-23T16:11:50.492Z,385
2018-04-23T16:12:03.434Z,385
2018-04-23T16:12:15.909Z,385
2018-04-23T16:12:28.877Z,385
2018-04-23T16:12:41.868Z,385
2018-04-23T16:12:54.865Z,385
2018-04-23T16:13:07.842Z,385
2018-04-23T16:13:20.798Z,380
2018-04-23T16:13:33.812Z,380
2018-04-23T16:13:46.767Z,380
2018-04-23T16:13:59.318Z,375
2018-04-23T16:14:11.798Z,375
2018-04-23T16:14:23.827Z,375
2018-04-23T16:14:36.360Z,375
2018-04-23T16:14:48.393Z,375
2018-04-23T16:15:01.388Z,375
2018-04-23T16:15:13.854Z,375
2018-04-23T16:15:26.343Z,375
2018-04-23T16:15:38.391Z,375
2018-04-23T16:15:50.446Z,375
2018-04-23T16:16:02.935Z,375
2018-04-23T16:16:15.004Z,375
2018-04-23T16:16:27.954Z,370
2018-04-23T16:16:40.030Z,370
2018-04-23T16:16:52.082Z,370
2018-04-23T16:17:04.117Z,370
2018-04-23T16:17:17.123Z,370
2018-04-23T16:17:29.642Z,370
2018-04-23T16:17:42.606Z,370
2018-04-23T16:17:55.605Z,375
2018-04-23T16:18:08.106Z,375
2018-04-23T16:18:21.029Z,375
2018-04-23T16:18:34.315Z,375
2018-04-23T16:18:46.339Z,375
2018-04-23T16:18:59.337Z,375
2018-04-23T16:19:11.408Z,375
2018-04-23T16:19:24.371Z,375
2018-04-23T16:19:36.398Z,370
2018-04-23T16:19:49.733Z,370
2018-04-23T16:20:02.707Z,370
2018-04-23T16:20:15.199Z,370
2018-04-23T16:20:28.151Z,370
2018-04-23T16:20:41.102Z,370
2018-04-23T16:20:54.089Z,370
2018-04-23T16:21:06.113Z,370
2018-04-23T16:21:18.651Z,370
2018-04-23T16:21:30.655Z,365
2018-04-23T16:21:43.669Z,365
2018-04-23T16:21:56.189Z,365
2018-04-23T16:22:07.782Z,365
2018-04-23T16:22:20.295Z,365
2018-04-23T16:22:33.217Z,365
2018-04-23T16:22:45.708Z,360
2018-04-23T16:22:58.181Z,360
2018-04-23T16:23:10.676Z,360
2018-04-23T16:23:23.695Z,360
2018-04-23T16:23:35.717Z,365
2018-04-23T16:23:47.745Z,365
2018-04-23T16:24:00.784Z,365
2018-04-23T16:24:12.763Z,365
2018-04-23T16:24:25.782Z,365
2018-04-23T16:24:37.921Z,365
2018-04-23T16:24:50.505Z,365
2018-04-23T16:25:03.441Z,365
2018-04-23T16:25:15.016Z,365
2018-04-23T16:25:27.586Z,365
2018-04-23T16:25:39.181Z,365
2018-04-23T16:25:51.208Z,365
2018-04-23T16:26:03.699Z,365
2018-04-23T16:26:16.664Z,370
2018-04-23T16:26:29.610Z,370
2018-04-23T16:26:41.607Z,370
2018-04-23T16:26:54.177Z,375
2018-04-23T16:27:05.774Z,370
2018-04-23T16:27:18.287Z,370
2018-04-23T16:27:31.279Z,370
2018-04-23T16:27:44.248Z,370
2018-04-23T16:27:56.300Z,370
2018-04-23T16:28:08.371Z,370
2018-04-23T16:28:20.880Z,370
2018-04-23T16:28:33.369Z,370
2018-04-23T16:28:45.887Z,370
2018-04-23T16:28:58.901Z,375
2018-04-23T16:29:11.392Z,370
2018-04-23T16:29:24.369Z,370
2018-04-23T16:29:37.377Z,370
2018-04-23T16:29:49.906Z,375
2018-04-23T16:30:02.923Z,370
2018-04-23T16:30:14.573Z,370
2018-04-23T16:30:27.109Z,375
2018-04-23T16:30:40.078Z,375
2018-04-23T16:30:52.532Z,370
2018-04-23T16:31:05.023Z,370
2018-04-23T16:31:17.523Z,370
2018-04-23T16:31:29.993Z,375
2018-04-23T16:31:42.571Z,375
2018-04-23T16:31:55.066Z,375
2018-04-23T16:32:08.060Z,375
2018-04-23T16:32:20.600Z,375
2018-04-23T16:32:32.567Z,375
2018-04-23T16:32:45.575Z,375
2018-04-23T16:32:57.677Z,375
2018-04-23T16:33:09.719Z,375
2018-04-23T16:33:22.253Z,375
2018-04-23T16:33:34.791Z,380
2018-04-23T16:33:46.336Z,380
2018-04-23T16:33:58.348Z,380
2018-04-23T16:34:09.914Z,380
2018-04-23T16:34:22.419Z,380
2018-04-23T16:34:34.940Z,380
2018-04-23T16:34:47.940Z,380
2018-04-23T16:35:00.864Z,380
2018-04-23T16:35:13.835Z,380
2018-04-23T16:35:26.322Z,380
2018-04-23T16:35:39.256Z,380
2018-04-23T16:35:52.279Z,380
2018-04-23T16:36:04.310Z,380
2018-04-23T16:36:15.890Z,380
2018-04-23T16:36:28.888Z,385
2018-04-23T16:36:41.390Z,385
2018-04-23T16:36:54.347Z,385
2018-04-23T16:37:06.837Z,385
2018-04-23T16:37:18.839Z,390
2018-04-23T16:37:31.742Z,385
2018-04-23T16:37:44.700Z,385
2018-04-23T16:37:56.796Z,385
2018-04-23T16:38:09.342Z,380
2018-04-23T16:38:21.865Z,390
2018-04-23T16:38:34.846Z,385
2018-04-23T16:38:47.348Z,385
2018-04-23T16:38:59.829Z,385
2018-04-23T16:39:11.892Z,385
2018-04-23T16:39:24.881Z,385
2018-04-23T16:39:36.984Z,390
2018-04-23T16:39:50.094Z,385
2018-04-23T16:40:03.144Z,390
2018-04-23T16:40:15.670Z,390
2018-04-23T16:40:28.621Z,390
2018-04-23T16:40:41.592Z,390
2018-04-23T16:40:54.142Z,390
2018-04-23T16:41:06.635Z,395
2018-04-23T16:41:19.132Z,395
2018-04-23T16:41:32.147Z,395
2018-04-23T16:41:45.085Z,395
2018-04-23T16:41:57.606Z,395
2018-04-23T16:42:10.596Z,400
2018-04-23T16:42:23.508Z,405
2018-04-23T16:42:36.502Z,400
2018-04-23T16:42:49.016Z,400
2018-04-23T16:43:01.519Z,400
2018-04-23T16:43:14.041Z,400
2018-04-23T16:43:26.595Z,400
2018-04-23T16:43:39.648Z,400
2018-04-23T16:43:52.175Z,400
2018-04-23T16:44:04.640Z,400
2018-04-23T16:44:17.157Z,400
2018-04-23T16:44:39.417Z,400
2018-04-23T16:44:56.889Z,400
2018-04-23T16:45:09.568Z,400
2018-04-23T16:45:22.525Z,405
2018-04-23T16:45:35.536Z,405
2018-04-23T16:45:48.060Z,405
2018-04-23T16:46:00.579Z,405
2018-04-23T16:46:13.546Z,405
2018-04-23T16:46:26.048Z,405
2018-04-23T16:46:38.603Z,410
2018-04-23T16:46:51.123Z,410
2018-04-23T16:47:03.613Z,410
2018-04-23T16:47:16.150Z,415
2018-04-23T16:47:28.637Z,415
2018-04-23T16:47:41.085Z,420
2018-04-23T16:47:54.063Z,420
2018-04-23T16:48:06.598Z,430
2018-04-23T16:48:19.581Z,425
2018-04-23T16:48:32.084Z,430
2018-04-23T16:48:44.636Z,435
2018-04-23T16:48:55.665Z,435
2018-04-23T16:49:08.148Z,440
2018-04-23T16:49:21.143Z,440
2018-04-23T16:49:33.665Z,440
2018-04-23T16:49:46.214Z,450
2018-04-23T16:49:59.007Z,445
2018-04-23T16:50:12.001Z,450
2018-04-23T16:50:24.043Z,450
2018-04-23T16:50:37.012Z,455
2018-04-23T16:50:49.527Z,455
2018-04-23T16:51:02.478Z,455
2018-04-23T16:51:15.020Z,460
2018-04-23T16:51:28.038Z,460
2018-04-23T16:51:40.528Z,460
2018-04-23T16:51:53.040Z,460
2018-04-23T16:52:05.089Z,460
2018-04-23T16:52:18.025Z,460
2018-04-23T16:52:31.055Z,465
2018-04-23T16:52:43.602Z,465
2018-04-23T16:52:56.565Z,465
2018-04-23T16:53:09.608Z,465
2018-04-23T16:53:21.703Z,465
2018-04-23T16:53:33.781Z,470
2018-04-23T16:53:46.282Z,465
2018-04-23T16:53:58.290Z,465
2018-04-23T16:54:11.239Z,465
2018-04-23T16:54:24.238Z,460
2018-04-23T16:54:36.271Z,460
2018-04-23T16:54:48.908Z,460
2018-04-23T16:55:01.924Z,460
2018-04-23T16:55:13.989Z,460
2018-04-23T16:55:26.970Z,460
2018-04-23T16:55:39.470Z,460
2018-04-23T16:55:52.495Z,460
2018-04-23T16:56:04.973Z,460
2018-04-23T16:56:17.468Z,465
2018-04-23T16:56:30.505Z,460
2018-04-23T16:56:43.027Z,465
2018-04-23T16:56:55.551Z,465
2018-04-23T16:57:08.106Z,465
2018-04-23T16:57:20.667Z,470
2018-04-23T16:57:33.679Z,470
2018-04-23T16:57:45.676Z,475
2018-04-23T16:57:58.576Z,475
2018-04-23T16:58:11.558Z,480
2018-04-23T16:58:24.077Z,480
2018-04-23T16:58:37.042Z,480
2018-04-23T16:58:49.558Z,485
2018-04-23T16:59:02.584Z,485
2018-04-23T16:59:14.641Z,490
2018-04-23T16:59:27.668Z,490
2018-04-23T16:59:40.193Z,490
2018-04-23T16:59:52.635Z,490
2018-04-23T17:00:05.596Z,495
2018-04-23T17:00:17.637Z,500
2018-04-23T17:00:30.652Z,500
2018-04-23T17:00:43.604Z,505
2018-04-23T17:00:55.630Z,505
2018-04-23T17:01:08.168Z,510
2018-04-23T17:01:21.124Z,505
2018-04-23T17:01:34.135Z,510
2018-04-23T17:01:46.638Z,515
2018-04-23T17:01:59.621Z,510
2018-04-23T17:02:12.156Z,515
2018-04-23T17:02:25.186Z,510
2018-04-23T17:02:37.741Z,510
2018-04-23T17:02:50.949Z,510
2018-04-23T17:03:03.516Z,510
2018-04-23T17:03:16.032Z,510
2018-04-23T17:03:28.989Z,510
2018-04-23T17:03:41.986Z,510
2018-04-23T17:03:54.561Z,510
2018-04-23T17:04:06.620Z,510
2018-04-23T17:04:19.594Z,515
2018-04-23T17:04:31.631Z,505
2018-04-23T17:04:44.565Z,505
2018-04-23T17:04:57.750Z,500
2018-04-23T17:05:10.711Z,500
2018-04-23T17:05:23.671Z,500
2018-04-23T17:05:36.117Z,505
2018-04-23T17:05:49.030Z,500
2018-04-23T17:06:01.004Z,500
2018-04-23T17:06:13.518Z,505
2018-04-23T17:06:26.478Z,505
2018-04-23T17:06:39.395Z,500
2018-04-23T17:06:52.362Z,505
2018-04-23T17:07:04.872Z,500
2018-04-23T17:07:16.866Z,500
2018-04-23T17:07:29.818Z,500
2018-04-23T17:07:42.801Z,495
2018-04-23T17:07:54.395Z,500
2018-04-23T17:08:07.583Z,495
2018-04-23T17:08:19.655Z,495
2018-04-23T17:08:30.776Z,490
2018-04-23T17:08:42.399Z,490
2018-04-23T17:08:54.916Z,495
2018-04-23T17:09:07.479Z,500
2018-04-23T17:09:20.021Z,490
2018-04-23T17:09:32.103Z,490
2018-04-23T17:09:44.600Z,490
2018-04-23T17:09:57.714Z,485
2018-04-23T17:10:09.274Z,485
2018-04-23T17:10:21.797Z,485
2018-04-23T17:10:34.247Z,485
2018-04-23T17:10:46.740Z,480
2018-04-23T17:10:59.317Z,480
2018-04-23T17:11:12.243Z,480
2018-04-23T17:11:25.237Z,480
2018-04-23T17:11:37.739Z,480
2018-04-23T17:11:50.743Z,480
2018-04-23T17:12:03.767Z,480
2018-04-23T17:12:16.326Z,475
2018-04-23T17:12:28.856Z,480
2018-04-23T17:12:41.392Z,475
2018-04-23T17:12:54.390Z,470
2018-04-23T17:13:07.377Z,470
2018-04-23T17:13:20.289Z,470
2018-04-23T17:13:32.751Z,470
2018-04-23T17:13:45.280Z,470
2018-04-23T17:13:58.229Z,470
2018-04-23T17:14:11.233Z,470
2018-04-23T17:14:23.771Z,470
2018-04-23T17:14:36.742Z,470
2018-04-23T17:14:48.813Z,470
2018-04-23T17:15:01.275Z,470
2018-04-23T17:15:13.703Z,470
2018-04-23T17:15:26.661Z,470
2018-04-23T17:15:39.570Z,470
2018-04-23T17:15:52.063Z,470
2018-04-23T17:16:04.636Z,470
2018-04-23T17:16:16.682Z,470
2018-04-23T17:16:29.188Z,470
2018-04-23T17:16:42.181Z,470
2018-04-23T17:16:54.687Z,470
2018-04-23T17:17:07.654Z,470
2018-04-23T17:17:20.614Z,470
2018-04-23T17:17:32.643Z,465
2018-04-23T17:17:44.748Z,460
2018-04-23T17:17:57.730Z,460
2018-04-23T17:18:10.268Z,460
2018-04-23T17:18:23.261Z,455
2018-04-23T17:18:35.771Z,455
2018-04-23T17:18:48.291Z,455
2018-04-23T17:19:00.705Z,455
2018-04-23T17:19:13.189Z,450
2018-04-23T17:19:25.649Z,450
2018-04-23T17:19:38.612Z,450
2018-04-23T17:19:51.575Z,450
2018-04-23T17:20:04.295Z,450
2018-04-23T17:20:17.207Z,445
2018-04-23T17:20:29.740Z,450
2018-04-23T17:20:41.346Z,440
2018-04-23T17:20:54.280Z,440
2018-04-23T17:21:07.227Z,435
2018-04-23T17:21:19.256Z,435
2018-04-23T17:21:31.811Z,435
2018-04-23T17:21:44.360Z,435
2018-04-23T17:21:57.321Z,435
2018-04-23T17:22:10.284Z,430
2018-04-23T17:22:22.789Z,430
2018-04-23T17:22:35.735Z,430
2018-04-23T17:22:48.217Z,430
2018-04-23T17:23:00.296Z,430
2018-04-23T17:23:13.254Z,430
2018-04-23T17:23:26.260Z,430
2018-04-23T17:23:38.740Z,430
2018-04-23T17:23:51.244Z,430
2018-04-23T17:24:04.193Z,430
2018-04-23T17:24:16.638Z,430
2018-04-23T17:24:29.674Z,425
2018-04-23T17:24:42.160Z,425
2018-04-23T17:24:54.636Z,425
2018-04-23T17:25:07.675Z,430
2018-04-23T17:25:20.219Z,430
2018-04-23T17:25:32.656Z,425
2018-04-23T17:25:45.188Z,430
2018-04-23T17:25:58.186Z,430
2018-04-23T17:26:10.709Z,430
2018-04-23T17:26:23.317Z,430
2018-04-23T17:26:36.282Z,430
2018-04-23T17:26:48.839Z,430
2018-04-23T17:27:01.317Z,430
2018-04-23T17:27:13.887Z,425
2018-04-23T17:27:26.408Z,425
2018-04-23T17:27:39.396Z,425
2018-04-23T17:27:51.450Z,425